sensor_id;sensor_type;location;lat;lon;timestamp;pressure;altitude;pressure_sealevel;temperature;humidity
50592;BME280;36548;50.506;30.834;2022-08-21T00:01:27;99772.98;;;20.75;70.43
50592;BME280;36548;50.506;30.834;2022-08-21T00:02:47;99769.09;;;21.01;69.96
50592;BME280;36548;50.506;30.834;2022-08-21T00:03:56;99776.62;;;20.99;69.65
50592;BME280;36548;50.506;30.834;2022-08-21T00:05:13;99765.43;;;21.17;69.36
50592;BME280;36548;50.506;30.834;2022-08-21T00:06:23;99776.86;;;21.12;68.96
50592;BME280;36548;50.506;30.834;2022-08-21T00:07:32;99767.84;;;21.12;69.06
50592;BME280;36548;50.506;30.834;2022-08-21T00:08:47;99765.43;;;21.17;68.90
50592;BME280;36548;50.506;30.834;2022-08-21T00:09:57;99781.71;;;21.02;68.90
50592;BME280;36548;50.506;30.834;2022-08-21T00:11:14;99772.14;;;21.06;69.14
50592;BME280;36548;50.506;30.834;2022-08-21T00:13:32;99771.60;;;20.80;69.85
50592;BME280;36548;50.506;30.834;2022-08-21T00:14:42;99779.09;;;20.77;69.89
50592;BME280;36548;50.506;30.834;2022-08-21T00:15:54;99772.66;;;20.70;70.34
50592;BME280;36548;50.506;30.834;2022-08-21T00:17:09;99767.16;;;20.78;70.34
50592;BME280;36548;50.506;30.834;2022-08-21T00:18:19;99781.19;;;20.59;70.43
50592;BME280;36548;50.506;30.834;2022-08-21T00:19:34;99764.98;;;20.66;70.88
50592;BME280;36548;50.506;30.834;2022-08-21T00:20:46;99782.39;;;20.56;70.99
50592;BME280;36548;50.506;30.834;2022-08-21T00:22:14;99779.13;;;20.61;70.50
50592;BME280;36548;50.506;30.834;2022-08-21T00:23:25;99775.38;;;20.62;70.13
50592;BME280;36548;50.506;30.834;2022-08-21T00:24:35;99785.27;;;20.71;70.35
50592;BME280;36548;50.506;30.834;2022-08-21T00:25:46;99784.91;;;20.74;70.13
50592;BME280;36548;50.506;30.834;2022-08-21T00:27:02;99776.44;;;21.01;69.45
50592;BME280;36548;50.506;30.834;2022-08-21T00:28:12;99782.26;;;20.98;69.28
50592;BME280;36548;50.506;30.834;2022-08-21T00:29:28;99782.77;;;20.93;69.30
50592;BME280;36548;50.506;30.834;2022-08-21T00:30:39;99780.27;;;20.83;69.26
50592;BME280;36548;50.506;30.834;2022-08-21T00:31:55;99766.36;;;21.01;69.16
50592;BME280;36548;50.506;30.834;2022-08-21T00:33:05;99768.84;;;20.88;69.36
50592;BME280;36548;50.506;30.834;2022-08-21T00:34:32;99774.44;;;20.86;69.59
50592;BME280;36548;50.506;30.834;2022-08-21T00:35:48;99769.13;;;20.93;69.30
50592;BME280;36548;50.506;30.834;2022-08-21T00:36:58;99779.09;;;20.77;69.08
50592;BME280;36548;50.506;30.834;2022-08-21T00:38:14;99767.64;;;20.82;69.33
50592;BME280;36548;50.506;30.834;2022-08-21T00:39:24;99780.66;;;20.72;69.47
50592;BME280;36548;50.506;30.834;2022-08-21T00:40:55;99782.19;;;20.66;69.98
50592;BME280;36548;50.506;30.834;2022-08-21T00:42:09;99777.27;;;20.70;69.68
50592;BME280;36548;50.506;30.834;2022-08-21T00:43:23;99775.38;;;20.62;69.53
50592;BME280;36548;50.506;30.834;2022-08-21T00:44:33;99774.87;;;20.58;69.87
50592;BME280;36548;50.506;30.834;2022-08-21T00:45:43;99775.56;;;20.60;69.92
50592;BME280;36548;50.506;30.834;2022-08-21T00:46:54;99770.47;;;20.57;69.73
50592;BME280;36548;50.506;30.834;2022-08-21T00:48:05;99774.05;;;20.50;70.06
50592;BME280;36548;50.506;30.834;2022-08-21T00:49:20;99767.92;;;20.56;70.10
50592;BME280;36548;50.506;30.834;2022-08-21T00:50:32;99771.17;;;20.43;70.15
50592;BME280;36548;50.506;30.834;2022-08-21T00:53:02;99765.88;;;20.50;70.65
50592;BME280;36548;50.506;30.834;2022-08-21T00:54:13;99771.35;;;20.41;70.30
50592;BME280;36548;50.506;30.834;2022-08-21T00:55:26;99774.59;;;20.45;70.16
50592;BME280;36548;50.506;30.834;2022-08-21T00:56:39;99775.95;;;20.49;70.05
50592;BME280;36548;50.506;30.834;2022-08-21T00:57:54;99769.41;;;20.58;69.62
50592;BME280;36548;50.506;30.834;2022-08-21T00:59:05;99769.39;;;20.67;69.61
50592;BME280;36548;50.506;30.834;2022-08-21T01:00:21;99764.66;;;20.69;68.95
50592;BME280;36548;50.506;30.834;2022-08-21T01:01:35;99765.20;;;20.95;68.90
50592;BME280;36548;50.506;30.834;2022-08-21T01:02:46;99766.63;;;20.83;68.55
50592;BME280;36548;50.506;30.834;2022-08-21T01:04:03;99773.84;;;20.59;69.41
50592;BME280;36548;50.506;30.834;2022-08-21T01:05:14;99774.55;;;20.61;69.48
50592;BME280;36548;50.506;30.834;2022-08-21T01:06:25;99771.69;;;20.47;69.80
50592;BME280;36548;50.506;30.834;2022-08-21T01:07:36;99768.25;;;20.53;69.83
50592;BME280;36548;50.506;30.834;2022-08-21T01:08:47;99774.05;;;20.50;69.67
50592;BME280;36548;50.506;30.834;2022-08-21T01:09:57;99767.07;;;20.47;69.74
50592;BME280;36548;50.506;30.834;2022-08-21T01:11:15;99767.07;;;20.47;69.74
50592;BME280;36548;50.506;30.834;2022-08-21T01:12:26;99766.62;;;20.35;70.00
50592;BME280;36548;50.506;30.834;2022-08-21T01:13:42;99762.16;;;20.42;70.06
50592;BME280;36548;50.506;30.834;2022-08-21T01:14:56;99768.48;;;20.26;70.42
50592;BME280;36548;50.506;30.834;2022-08-21T01:16:26;99766.28;;;20.30;70.48
50592;BME280;36548;50.506;30.834;2022-08-21T01:17:41;99753.95;;;20.51;70.29
50592;BME280;36548;50.506;30.834;2022-08-21T01:18:51;99766.92;;;20.40;69.32
50592;BME280;36548;50.506;30.834;2022-08-21T01:20:10;99763.93;;;20.67;69.05
50592;BME280;36548;50.506;30.834;2022-08-21T01:21:25;99765.13;;;20.64;68.68
50592;BME280;36548;50.506;30.834;2022-08-21T01:22:54;99769.89;;;20.78;68.56
50592;BME280;36548;50.506;30.834;2022-08-21T01:24:09;99754.06;;;21.05;68.55
50592;BME280;36548;50.506;30.834;2022-08-21T01:25:19;99761.09;;;21.00;67.65
50592;BME280;36548;50.506;30.834;2022-08-21T01:26:35;99756.27;;;21.10;67.49
50592;BME280;36548;50.506;30.834;2022-08-21T01:27:46;99762.98;;;20.99;67.32
50592;BME280;36548;50.506;30.834;2022-08-21T01:30:50;99757.30;;;21.09;67.03
50592;BME280;36548;50.506;30.834;2022-08-21T01:32:04;99755.81;;;20.98;67.28
50592;BME280;36548;50.506;30.834;2022-08-21T01:33:15;99750.54;;;20.97;67.00
50592;BME280;36548;50.506;30.834;2022-08-21T01:34:25;99757.20;;;20.94;66.98
50592;BME280;36548;50.506;30.834;2022-08-21T01:35:34;99758.40;;;20.91;67.12
50592;BME280;36548;50.506;30.834;2022-08-21T01:36:46;99757.92;;;20.88;67.16
50592;BME280;36548;50.506;30.834;2022-08-21T01:37:57;99760.66;;;20.88;67.27
50592;BME280;36548;50.506;30.834;2022-08-21T01:39:07;99751.97;;;20.84;67.29
50592;BME280;36548;50.506;30.834;2022-08-21T01:40:29;99758.55;;;20.98;67.63
50592;BME280;36548;50.506;30.834;2022-08-21T01:41:38;99749.74;;;20.88;67.16
50592;BME280;36548;50.506;30.834;2022-08-21T01:43:14;99744.21;;;20.96;66.94
50592;BME280;36548;50.506;30.834;2022-08-21T01:44:26;99751.97;;;20.84;66.97
50592;BME280;36548;50.506;30.834;2022-08-21T01:45:35;99746.69;;;20.83;67.29
50592;BME280;36548;50.506;30.834;2022-08-21T01:46:46;99755.71;;;20.83;67.17
50592;BME280;36548;50.506;30.834;2022-08-21T01:47:55;99756.08;;;20.80;67.01
50592;BME280;36548;50.506;30.834;2022-08-21T01:49:05;99749.42;;;20.83;67.57
50592;BME280;36548;50.506;30.834;2022-08-21T01:50:18;99756.22;;;20.87;67.79
50592;BME280;36548;50.506;30.834;2022-08-21T01:51:34;99745.41;;;21.02;67.20
50592;BME280;36548;50.506;30.834;2022-08-21T01:52:43;99750.03;;;20.93;66.81
50592;BME280;36548;50.506;30.834;2022-08-21T01:53:53;99740.33;;;20.90;66.72
50592;BME280;36548;50.506;30.834;2022-08-21T01:55:10;99744.72;;;21.00;66.59
50592;BME280;36548;50.506;30.834;2022-08-21T01:56:19;99745.48;;;20.85;66.56
50592;BME280;36548;50.506;30.834;2022-08-21T01:57:29;99744.98;;;20.82;66.62
50592;BME280;36548;50.506;30.834;2022-08-21T01:58:41;99746.00;;;20.81;67.10
50592;BME280;36548;50.506;30.834;2022-08-21T01:59:58;99748.51;;;20.90;66.96
50592;BME280;36548;50.506;30.834;2022-08-21T02:01:07;99744.48;;;20.78;66.82
50592;BME280;36548;50.506;30.834;2022-08-21T02:03:33;99753.02;;;20.75;66.92
50592;BME280;36548;50.506;30.834;2022-08-21T02:04:44;99747.93;;;20.72;66.92
50592;BME280;36548;50.506;30.834;2022-08-21T02:05:59;99744.98;;;20.82;67.09
50592;BME280;36548;50.506;30.834;2022-08-21T02:07:09;99748.95;;;20.71;67.23
50592;BME280;36548;50.506;30.834;2022-08-21T02:08:24;99755.23;;;20.80;67.06
50592;BME280;36548;50.506;30.834;2022-08-21T02:09:35;99755.45;;;20.70;67.20
50592;BME280;36548;50.506;30.834;2022-08-21T02:11:03;99756.30;;;20.70;67.27
50592;BME280;36548;50.506;30.834;2022-08-21T02:12:12;99754.22;;;20.72;67.04
50592;BME280;36548;50.506;30.834;2022-08-21T02:13:22;99753.20;;;20.73;66.97
50592;BME280;36548;50.506;30.834;2022-08-21T02:14:38;99743.97;;;20.83;67.03
50592;BME280;36548;50.506;30.834;2022-08-21T02:15:47;99751.49;;;20.72;66.88
50592;BME280;36548;50.506;30.834;2022-08-21T02:16:58;99751.49;;;20.72;66.76
50592;BME280;36548;50.506;30.834;2022-08-21T02:18:10;99747.93;;;20.72;66.93
50592;BME280;36548;50.506;30.834;2022-08-21T02:19:25;99741.41;;;20.81;66.79
50592;BME280;36548;50.506;30.834;2022-08-21T02:20:38;99750.84;;;20.70;66.87
50592;BME280;36548;50.506;30.834;2022-08-21T02:21:47;99755.09;;;20.73;66.87
50592;BME280;36548;50.506;30.834;2022-08-21T02:22:56;99759.86;;;20.71;66.56
50592;BME280;36548;50.506;30.834;2022-08-21T02:24:12;99745.53;;;20.77;66.59
50592;BME280;36548;50.506;30.834;2022-08-21T02:25:24;99759.53;;;20.66;66.65
50592;BME280;36548;50.506;30.834;2022-08-21T02:26:36;99764.11;;;20.65;66.83
50592;BME280;36548;50.506;30.834;2022-08-21T02:27:47;99766.54;;;20.60;66.68
50592;BME280;36548;50.506;30.834;2022-08-21T02:28:59;99769.44;;;20.50;66.91
50592;BME280;36548;50.506;30.834;2022-08-21T02:30:12;99773.72;;;20.44;67.35
50592;BME280;36548;50.506;30.834;2022-08-21T02:31:28;99763.66;;;20.53;67.49
50592;BME280;36548;50.506;30.834;2022-08-21T02:32:38;99769.64;;;20.40;67.36
50592;BME280;36548;50.506;30.834;2022-08-21T02:33:47;99778.71;;;20.33;67.50
50592;BME280;36548;50.506;30.834;2022-08-21T02:34:57;99769.00;;;20.30;67.70
50592;BME280;36548;50.506;30.834;2022-08-21T02:36:09;99765.09;;;20.33;67.98
50592;BME280;36548;50.506;30.834;2022-08-21T02:37:24;99761.64;;;20.39;67.66
50592;BME280;36548;50.506;30.834;2022-08-21T02:38:35;99766.10;;;20.32;67.94
50592;BME280;36548;50.506;30.834;2022-08-21T02:39:49;99770.20;;;20.27;67.62
50592;BME280;36548;50.506;30.834;2022-08-21T02:40:59;99765.94;;;20.25;67.92
50592;BME280;36548;50.506;30.834;2022-08-21T02:42:14;99761.16;;;20.35;68.12
50592;BME280;36548;50.506;30.834;2022-08-21T02:43:27;99765.28;;;20.23;67.75
50592;BME280;36548;50.506;30.834;2022-08-21T02:44:36;99766.98;;;20.24;67.86
50592;BME280;36548;50.506;30.834;2022-08-21T02:45:46;99769.72;;;20.24;67.79
50592;BME280;36548;50.506;30.834;2022-08-21T02:46:56;99758.13;;;20.22;67.92
50592;BME280;36548;50.506;30.834;2022-08-21T02:48:09;99763.57;;;20.22;67.79
50592;BME280;36548;50.506;30.834;2022-08-21T02:49:19;99762.55;;;20.23;67.90
50592;BME280;36548;50.506;30.834;2022-08-21T02:50:40;99765.94;;;20.25;67.79
50592;BME280;36548;50.506;30.834;2022-08-21T02:51:56;99762.52;;;20.39;67.96
50592;BME280;36548;50.506;30.834;2022-08-21T02:53:12;99769.00;;;20.30;67.49
50592;BME280;36548;50.506;30.834;2022-08-21T02:54:23;99766.10;;;20.32;67.31
50592;BME280;36548;50.506;30.834;2022-08-21T02:55:34;99777.36;;;20.29;66.98
50592;BME280;36548;50.506;30.834;2022-08-21T02:56:45;99773.28;;;20.24;67.08
50592;BME280;36548;50.506;30.834;2022-08-21T02:58:02;99772.92;;;20.27;67.33
50592;BME280;36548;50.506;30.834;2022-08-21T02:59:13;99765.65;;;20.12;67.72
50592;BME280;36548;50.506;30.834;2022-08-21T03:00:27;99766.84;;;20.09;67.86
50592;BME280;36548;50.506;30.834;2022-08-21T03:01:38;99761.03;;;20.12;67.75
50592;BME280;36548;50.506;30.834;2022-08-21T03:02:53;99765.45;;;20.21;67.32
50592;BME280;36548;50.506;30.834;2022-08-21T03:04:05;99766.84;;;20.09;67.29
50592;BME280;36548;50.506;30.834;2022-08-21T03:05:16;99766.84;;;20.09;67.41
50592;BME280;36548;50.506;30.834;2022-08-21T03:06:27;99761.03;;;20.12;67.26
50592;BME280;36548;50.506;30.834;2022-08-21T03:07:38;99765.30;;;20.15;67.31
50592;BME280;36548;50.506;30.834;2022-08-21T03:08:53;99766.47;;;20.20;67.09
50592;BME280;36548;50.506;30.834;2022-08-21T03:10:05;99776.38;;;20.05;67.22
50592;BME280;36548;50.506;30.834;2022-08-21T03:11:21;99769.88;;;20.14;67.33
50592;BME280;36548;50.506;30.834;2022-08-21T03:12:31;99772.30;;;20.01;67.33
50592;BME280;36548;50.506;30.834;2022-08-21T03:13:42;99770.77;;;19.98;67.54
50592;BME280;36548;50.506;30.834;2022-08-21T03:14:51;99767.52;;;19.95;67.74
50592;BME280;36548;50.506;30.834;2022-08-21T03:16:00;99774.02;;;19.93;67.68
50592;BME280;36548;50.506;30.834;2022-08-21T03:17:16;99756.30;;;20.06;67.93
50592;BME280;36548;50.506;30.834;2022-08-21T03:18:28;99763.30;;;19.92;67.20
50592;BME280;36548;50.506;30.834;2022-08-21T03:19:38;99765.49;;;19.97;67.38
50592;BME280;36548;50.506;30.834;2022-08-21T03:20:48;99771.12;;;19.95;67.25
50592;BME280;36548;50.506;30.834;2022-08-21T03:21:58;99767.34;;;19.96;67.35
50592;BME280;36548;50.506;30.834;2022-08-21T03:23:14;99765.13;;;20.08;67.25
50592;BME280;36548;50.506;30.834;2022-08-21T03:24:25;99777.92;;;19.99;67.32
50592;BME280;36548;50.506;30.834;2022-08-21T03:25:36;99777.58;;;20.02;67.42
50592;BME280;36548;50.506;30.834;2022-08-21T03:26:51;99776.20;;;20.15;67.16
50592;BME280;36548;50.506;30.834;2022-08-21T03:28:02;99784.55;;;20.05;67.16
50592;BME280;36548;50.506;30.834;2022-08-21T03:29:13;99788.12;;;20.05;66.95
50592;BME280;36548;50.506;30.834;2022-08-21T03:30:25;99785.04;;;20.08;67.00
50592;BME280;36548;50.506;30.834;2022-08-21T03:31:34;99783.19;;;20.09;66.97
50592;BME280;36548;50.506;30.834;2022-08-21T03:32:44;99786.92;;;20.08;67.18
50592;BME280;36548;50.506;30.834;2022-08-21T03:33:55;99789.48;;;20.09;66.97
50592;BME280;36548;50.506;30.834;2022-08-21T03:35:07;99789.13;;;20.13;67.01
50592;BME280;36548;50.506;30.834;2022-08-21T03:36:17;99787.09;;;20.15;66.90
50592;BME280;36548;50.506;30.834;2022-08-21T03:37:27;99785.38;;;20.22;66.82
50592;BME280;36548;50.506;30.834;2022-08-21T03:38:38;99799.00;;;20.22;66.27
50592;BME280;36548;50.506;30.834;2022-08-21T03:39:54;99780.74;;;20.31;66.37
50592;BME280;36548;50.506;30.834;2022-08-21T03:41:04;99793.02;;;20.26;66.48
50592;BME280;36548;50.506;30.834;2022-08-21T03:42:20;99785.16;;;20.40;66.19
50592;BME280;36548;50.506;30.834;2022-08-21T03:43:32;99784.33;;;20.39;66.43
50592;BME280;36548;50.506;30.834;2022-08-21T03:44:59;99786.00;;;20.40;65.32
50592;BME280;36548;50.506;30.834;2022-08-21T03:46:09;99792.80;;;20.44;65.09
50592;BME280;36548;50.506;30.834;2022-08-21T03:47:25;99791.74;;;20.62;64.84
50592;BME280;36548;50.506;30.834;2022-08-21T03:48:35;99799.39;;;20.67;65.01
50592;BME280;36548;50.506;30.834;2022-08-21T03:49:51;99794.59;;;20.85;64.24
50592;BME280;36548;50.506;30.834;2022-08-21T03:51:01;99799.69;;;20.88;64.36
50592;BME280;36548;50.506;30.834;2022-08-21T03:52:11;99805.07;;;21.05;64.16
50592;BME280;36548;50.506;30.834;2022-08-21T03:53:26;99797.13;;;21.18;63.08
50592;BME280;36548;50.506;30.834;2022-08-21T03:54:35;99795.09;;;21.20;62.89
50592;BME280;36548;50.506;30.834;2022-08-21T03:55:46;99803.55;;;21.34;62.58
50592;BME280;36548;50.506;30.834;2022-08-21T03:56:56;99804.15;;;21.44;61.83
50592;BME280;36548;50.506;30.834;2022-08-21T03:58:12;99790.55;;;21.67;61.59
50592;BME280;36548;50.506;30.834;2022-08-21T03:59:24;99806.94;;;21.36;62.24
50592;BME280;36548;50.506;30.834;2022-08-21T04:00:35;99809.06;;;21.49;61.92
50592;BME280;36548;50.506;30.834;2022-08-21T04:02:00;99810.00;;;21.64;61.64
50592;BME280;36548;50.506;30.834;2022-08-21T04:03:16;99796.27;;;21.95;61.96
50592;BME280;36548;50.506;30.834;2022-08-21T04:04:28;99810.42;;;21.99;60.29
50592;BME280;36548;50.506;30.834;2022-08-21T04:05:38;99802.73;;;22.18;59.96
50592;BME280;36548;50.506;30.834;2022-08-21T04:06:55;99805.63;;;22.39;59.39
50592;BME280;36548;50.506;30.834;2022-08-21T04:08:07;99803.73;;;22.40;58.64
50592;BME280;36548;50.506;30.834;2022-08-21T04:09:17;99801.85;;;22.55;59.44
50592;BME280;36548;50.506;30.834;2022-08-21T04:10:31;99810.91;;;22.86;60.07
50592;BME280;36548;50.506;30.834;2022-08-21T04:11:47;99804.64;;;23.22;57.51
50592;BME280;36548;50.506;30.834;2022-08-21T04:12:57;99807.97;;;23.17;57.31
50592;BME280;36548;50.506;30.834;2022-08-21T04:14:07;99804.13;;;23.33;57.43
50592;BME280;36548;50.506;30.834;2022-08-21T04:15:16;99800.56;;;23.54;57.06
50592;BME280;36548;50.506;30.834;2022-08-21T04:16:27;99806.45;;;23.73;56.14
50592;BME280;36548;50.506;30.834;2022-08-21T04:18:01;99802.08;;;24.00;55.90
50592;BME280;36548;50.506;30.834;2022-08-21T04:19:12;99800.41;;;23.99;55.36
50592;BME280;36548;50.506;30.834;2022-08-21T04:20:30;99795.87;;;24.13;55.48
50592;BME280;36548;50.506;30.834;2022-08-21T04:21:40;99797.95;;;24.11;55.12
50592;BME280;36548;50.506;30.834;2022-08-21T04:22:56;99799.16;;;24.30;54.52
50592;BME280;36548;50.506;30.834;2022-08-21T04:24:08;99797.20;;;24.24;54.81
50592;BME280;36548;50.506;30.834;2022-08-21T04:25:36;99800.40;;;24.27;54.53
50592;BME280;36548;50.506;30.834;2022-08-21T04:26:47;99802.30;;;24.27;53.78
50592;BME280;36548;50.506;30.834;2022-08-21T04:27:56;99800.34;;;23.92;54.15
50592;BME280;36548;50.506;30.834;2022-08-21T04:29:07;99796.73;;;23.92;55.02
50592;BME280;36548;50.506;30.834;2022-08-21T04:30:19;99790.21;;;23.93;54.89
50592;BME280;36548;50.506;30.834;2022-08-21T04:31:36;99798.44;;;23.93;54.31
50592;BME280;36548;50.506;30.834;2022-08-21T04:32:48;99794.56;;;23.87;55.44
50592;BME280;36548;50.506;30.834;2022-08-21T04:33:59;99793.81;;;23.93;55.66
50592;BME280;36548;50.506;30.834;2022-08-21T04:35:10;99798.00;;;23.89;55.36
50592;BME280;36548;50.506;30.834;2022-08-21T04:36:26;99798.96;;;24.03;54.74
50592;BME280;36548;50.506;30.834;2022-08-21T04:37:36;99807.76;;;23.98;55.39
50592;BME280;36548;50.506;30.834;2022-08-21T04:38:48;99805.88;;;23.99;54.37
50592;BME280;36548;50.506;30.834;2022-08-21T04:39:57;99803.98;;;23.99;54.05
50592;BME280;36548;50.506;30.834;2022-08-21T04:41:13;99797.11;;;24.10;55.05
50592;BME280;36548;50.506;30.834;2022-08-21T04:42:23;99800.83;;;24.03;54.29
50592;BME280;36548;50.506;30.834;2022-08-21T04:43:39;99801.94;;;24.08;54.14
50592;BME280;36548;50.506;30.834;2022-08-21T04:44:51;99803.14;;;23.99;54.63
50592;BME280;36548;50.506;30.834;2022-08-21T04:46:20;99798.96;;;24.03;54.44
50592;BME280;36548;50.506;30.834;2022-08-21T04:47:33;99802.39;;;24.12;54.22
50592;BME280;36548;50.506;30.834;2022-08-21T04:49:05;99803.23;;;24.12;54.27
50592;BME280;36548;50.506;30.834;2022-08-21T04:50:20;99799.71;;;24.19;53.91
50592;BME280;36548;50.506;30.834;2022-08-21T04:51:34;99799.50;;;24.20;54.17
50592;BME280;36548;50.506;30.834;2022-08-21T04:52:46;99802.13;;;24.07;52.84
50592;BME280;36548;50.506;30.834;2022-08-21T04:53:59;99800.83;;;24.03;53.70
50592;BME280;36548;50.506;30.834;2022-08-21T04:55:16;99787.99;;;24.03;54.02
50592;BME280;36548;50.506;30.834;2022-08-21T04:57:48;99805.20;;;24.19;53.51
50592;BME280;36548;50.506;30.834;2022-08-21T04:59:02;99802.59;;;24.10;53.46
50592;BME280;36548;50.506;30.834;2022-08-21T05:00:30;99803.20;;;24.06;52.76
50592;BME280;36548;50.506;30.834;2022-08-21T05:01:42;99807.95;;;23.97;53.35
50592;BME280;36548;50.506;30.834;2022-08-21T05:03:11;99805.52;;;23.87;53.11
50592;BME280;36548;50.506;30.834;2022-08-21T05:04:29;99795.26;;;23.89;53.33
50592;BME280;36548;50.506;30.834;2022-08-21T05:05:39;99795.16;;;23.61;53.65
50592;BME280;36548;50.506;30.834;2022-08-21T05:06:51;99795.36;;;23.38;53.98
50592;BME280;36548;50.506;30.834;2022-08-21T05:08:08;99798.14;;;23.23;54.83
50592;BME280;36548;50.506;30.834;2022-08-21T05:09:20;99796.03;;;23.10;55.07
50592;BME280;36548;50.506;30.834;2022-08-21T05:10:36;99792.86;;;23.21;55.22
50592;BME280;36548;50.506;30.834;2022-08-21T05:11:47;99793.13;;;23.11;55.50
50592;BME280;36548;50.506;30.834;2022-08-21T05:13:15;99794.84;;;23.12;55.06
50592;BME280;36548;50.506;30.834;2022-08-21T05:14:31;99796.43;;;23.22;54.93
50592;BME280;36548;50.506;30.834;2022-08-21T05:15:41;99808.16;;;23.01;55.31
50592;BME280;36548;50.506;30.834;2022-08-21T05:16:56;99805.48;;;23.22;56.11
50592;BME280;36548;50.506;30.834;2022-08-21T05:18:06;99802.19;;;23.27;55.92
50592;BME280;36548;50.506;30.834;2022-08-21T05:19:34;99799.13;;;23.37;55.00
50592;BME280;36548;50.506;30.834;2022-08-21T05:20:44;99804.09;;;23.48;55.27
50592;BME280;36548;50.506;30.834;2022-08-21T05:21:54;99793.08;;;23.63;54.60
50592;BME280;36548;50.506;30.834;2022-08-21T05:23:12;99780.69;;;23.67;54.40
50592;BME280;36548;50.506;30.834;2022-08-21T05:24:28;99781.35;;;23.91;54.65
50592;BME280;36548;50.506;30.834;2022-08-21T05:25:38;99789.38;;;23.92;53.78
50592;BME280;36548;50.506;30.834;2022-08-21T05:26:49;99796.16;;;23.96;53.27
50592;BME280;36548;50.506;30.834;2022-08-21T05:27:58;99796.56;;;23.93;53.36
50592;BME280;36548;50.506;30.834;2022-08-21T05:29:09;99792.72;;;23.88;53.36
50592;BME280;36548;50.506;30.834;2022-08-21T05:30:25;99787.79;;;24.05;53.05
50592;BME280;36548;50.506;30.834;2022-08-21T05:31:34;99801.44;;;23.98;53.50
50592;BME280;36548;50.506;30.834;2022-08-21T05:32:44;99796.85;;;24.05;53.06
50592;BME280;36548;50.506;30.834;2022-08-21T05:33:53;99789.50;;;24.06;52.20
50592;BME280;36548;50.506;30.834;2022-08-21T05:35:09;99789.50;;;24.06;52.10
50592;BME280;36548;50.506;30.834;2022-08-21T05:36:18;99790.41;;;23.91;52.40
50592;BME280;36548;50.506;30.834;2022-08-21T05:37:28;99790.11;;;23.86;52.63
50592;BME280;36548;50.506;30.834;2022-08-21T05:38:38;99803.72;;;23.73;52.96
50592;BME280;36548;50.506;30.834;2022-08-21T05:40:06;99794.26;;;23.75;53.37
50592;BME280;36548;50.506;30.834;2022-08-21T05:41:19;99795.80;;;23.84;52.99
50592;BME280;36548;50.506;30.834;2022-08-21T05:42:29;99799.47;;;23.92;53.06
50592;BME280;36548;50.506;30.834;2022-08-21T05:43:39;99806.45;;;23.94;52.67
50592;BME280;36548;50.506;30.834;2022-08-21T05:44:54;99801.36;;;24.13;53.04
50592;BME280;36548;50.506;30.834;2022-08-21T05:46:06;99800.00;;;24.02;52.85
50592;BME280;36548;50.506;30.834;2022-08-21T05:47:22;99794.22;;;24.19;52.88
50592;BME280;36548;50.506;30.834;2022-08-21T05:48:33;99788.69;;;24.12;52.64
50592;BME280;36548;50.506;30.834;2022-08-21T05:50:01;99793.97;;;24.13;52.48
50592;BME280;36548;50.506;30.834;2022-08-21T05:51:16;99788.97;;;24.24;52.52
50592;BME280;36548;50.506;30.834;2022-08-21T05:52:27;99784.91;;;24.13;52.20
50592;BME280;36548;50.506;30.834;2022-08-21T05:53:43;99784.50;;;24.16;51.86
50592;BME280;36548;50.506;30.834;2022-08-21T05:54:52;99792.81;;;24.01;52.29
50592;BME280;36548;50.506;30.834;2022-08-21T05:56:03;99791.52;;;23.97;52.54
50592;BME280;36548;50.506;30.834;2022-08-21T05:57:14;99789.64;;;23.97;52.47
50592;BME280;36548;50.506;30.834;2022-08-21T05:58:41;99784.98;;;23.98;52.38
50592;BME280;36548;50.506;30.834;2022-08-21T05:59:51;99786.03;;;23.97;52.23
50592;BME280;36548;50.506;30.834;2022-08-21T06:01:02;99792.31;;;23.91;52.06
50592;BME280;36548;50.506;30.834;2022-08-21T06:02:19;99785.59;;;23.93;52.54
50592;BME280;36548;50.506;30.834;2022-08-21T06:03:31;99785.91;;;23.83;52.53
50592;BME280;36548;50.506;30.834;2022-08-21T06:04:47;99791.91;;;23.94;52.77
50592;BME280;36548;50.506;30.834;2022-08-21T06:05:57;99794.77;;;23.86;52.92
50592;BME280;36548;50.506;30.834;2022-08-21T06:07:08;99791.65;;;23.89;53.02
50592;BME280;36548;50.506;30.834;2022-08-21T06:08:18;99789.17;;;23.94;52.62
50592;BME280;36548;50.506;30.834;2022-08-21T06:09:28;99786.89;;;23.97;52.47
50592;BME280;36548;50.506;30.834;2022-08-21T06:10:38;99784.78;;;23.99;52.61
50592;BME280;36548;50.506;30.834;2022-08-21T06:11:48;99788.63;;;24.05;52.75
50592;BME280;36548;50.506;30.834;2022-08-21T06:13:03;99792.58;;;24.24;52.38
50592;BME280;36548;50.506;30.834;2022-08-21T06:14:16;99798.27;;;24.23;52.40
50592;BME280;36548;50.506;30.834;2022-08-21T06:15:31;99790.16;;;24.43;51.83
50592;BME280;36548;50.506;30.834;2022-08-21T06:16:43;99797.55;;;24.42;51.84
50592;BME280;36548;50.506;30.834;2022-08-21T06:18:10;99786.42;;;24.50;51.64
50592;BME280;36548;50.506;30.834;2022-08-21T06:19:26;99784.88;;;24.70;51.84
50592;BME280;36548;50.506;30.834;2022-08-21T06:20:37;99787.17;;;24.66;51.84
50592;BME280;36548;50.506;30.834;2022-08-21T06:21:53;99782.39;;;24.81;51.41
50592;BME280;36548;50.506;30.834;2022-08-21T06:23:02;99784.27;;;24.74;51.20
50592;BME280;36548;50.506;30.834;2022-08-21T06:24:30;99779.19;;;24.71;50.63
50592;BME280;36548;50.506;30.834;2022-08-21T06:25:45;99776.45;;;24.78;50.54
50592;BME280;36548;50.506;30.834;2022-08-21T06:26:56;99787.17;;;24.66;50.52
50592;BME280;36548;50.506;30.834;2022-08-21T06:28:08;99786.72;;;24.62;50.38
50592;BME280;36548;50.506;30.834;2022-08-21T06:29:18;99788.14;;;24.58;50.41
50592;BME280;36548;50.506;30.834;2022-08-21T06:30:35;99775.58;;;24.71;50.48
50592;BME280;36548;50.506;30.834;2022-08-21T06:31:49;99783.77;;;24.64;50.75